Terminal Aerodrome Forecast
Issued by NWS Paducah, KY

Home | Current Version | Previous Version | Text Only | Print | Product List | Glossary Off
Versions: 1 2 3 4 5 6 7 8 9 10 11 12 13 14 15 16 17 18 19 20 21 22 23 24 25

000
FTUS43 KPAH 072340
TAFPAH
TAF
KPAH 072340Z 0800/0824 26006KT P6SM VCSH FEW025 BKN120
      TEMPO 0804/0805 -SHRA BKN060
     FM080800 27004KT 4SM BR BKN015
     FM081200 19004KT 1 1/2SM -SHRA BR BKN015 OVC035
      TEMPO 0812/0814 1/2SM -TSRA FG OVC009CB
     FM081430 24001KT P6SM -SHRA BKN010 OVC040
     FM082130 19006KT P6SM FEW035=

USA.gov is the U.S. government's official web portal to all federal, state and local government web resources and services.